Time;durP1;ratioP1;P1;durP2;ratioP2;P2;SDS_P1;SDS_P2;PMS_P1;PMS_P2;Temp;Humidity;BMP_temperature;BMP_pressure;BME280_temperature;BME280_humidity;BME280_pressure;Samples;Min_cycle;Max_cycle;Signal;HPM_P1;HPM_P2
2021/12/27 00:00:26;;;;;;;5.00;3.28;;;5.40;99.90;;;;;;5036477;28;20056;-86
2021/12/27 00:02:56;;;;;;;4.03;3.30;;;5.40;99.90;;;;;;5035599;28;20032;-84
2021/12/27 00:05:22;;;;;;;4.35;3.08;;;5.50;99.90;;;;;;5038222;28;20018;-84
2021/12/27 00:07:50;;;;;;;4.03;3.08;;;5.50;99.90;;;;;;5037823;28;20282;-85
2021/12/27 00:10:18;;;;;;;4.18;3.15;;;5.50;99.90;;;;;;5027424;28;20033;-86
2021/12/27 00:12:44;;;;;;;4.70;3.47;;;5.50;99.90;;;;;;5038362;28;20081;-86
2021/12/27 00:15:10;;;;;;;4.03;3.38;;;5.50;99.90;;;;;;5051108;28;20029;-86
2021/12/27 00:17:36;;;;;;;3.63;2.97;;;5.40;99.90;;;;;;5054404;28;20038;-87
2021/12/27 00:20:03;;;;;;;4.38;3.17;;;5.50;99.90;;;;;;5045839;28;20375;-84
2021/12/27 00:22:29;;;;;;;3.22;2.70;;;5.50;99.90;;;;;;5040789;28;20052;-84
2021/12/27 00:24:54;;;;;;;4.32;3.33;;;5.50;99.90;;;;;;5039092;28;20109;-84
2021/12/27 00:27:20;;;;;;;2.97;2.67;;;5.50;99.90;;;;;;5040577;28;20021;-84
2021/12/27 00:29:46;;;;;;;2.72;2.50;;;5.50;99.90;;;;;;5045373;28;20048;-85
2021/12/27 00:32:12;;;;;;;3.38;2.70;;;5.60;99.90;;;;;;5043639;28;20022;-85
2021/12/27 00:34:38;;;;;;;2.85;2.60;;;5.60;99.90;;;;;;5041700;28;20037;-86
2021/12/27 00:37:09;;;;;;;3.92;2.92;;;5.60;99.90;;;;;;5041227;28;20029;-86
2021/12/27 00:39:35;;;;;;;4.72;3.55;;;5.50;99.90;;;;;;5041373;28;20056;-84
2021/12/27 00:42:02;;;;;;;3.15;2.83;;;5.60;99.90;;;;;;5041297;28;20400;-83
2021/12/27 00:44:28;;;;;;;3.40;2.88;;;5.60;99.90;;;;;;5024570;28;20022;-84
2021/12/27 00:46:54;;;;;;;3.13;2.40;;;5.60;99.90;;;;;;5023945;28;20041;-83
2021/12/27 00:49:21;;;;;;;2.88;2.58;;;5.50;99.90;;;;;;5021052;28;20018;-85
2021/12/27 00:51:47;;;;;;;3.92;3.00;;;5.50;99.90;;;;;;5020100;28;20404;-85
2021/12/27 00:54:13;;;;;;;2.97;2.67;;;5.60;99.90;;;;;;5019632;28;20041;-84
2021/12/27 00:56:39;;;;;;;3.10;2.80;;;5.60;99.90;;;;;;5018896;28;20077;-84
2021/12/27 00:59:04;;;;;;;3.20;2.90;;;5.60;99.90;;;;;;5018786;28;20049;-84
2021/12/27 01:01:30;;;;;;;2.80;2.53;;;5.60;99.90;;;;;;5017717;28;20061;-84
2021/12/27 01:03:56;;;;;;;3.25;2.92;;;5.60;99.90;;;;;;5020196;28;20137;-84
2021/12/27 01:06:21;;;;;;;4.03;3.28;;;5.60;99.90;;;;;;5025355;28;20082;-84
2021/12/27 01:08:47;;;;;;;3.78;2.97;;;5.50;99.90;;;;;;5025225;28;20021;-84
2021/12/27 01:13:46;;;;;;;4.10;3.13;;;5.50;99.90;;;;;;5038395;28;20175;-85
2021/12/27 01:16:14;;;;;;;3.40;3.10;;;5.50;99.90;;;;;;5019290;28;20129;-84
2021/12/27 01:18:45;;;;;;;4.13;3.40;;;5.50;99.90;;;;;;5020099;28;20137;-84
2021/12/27 01:21:12;;;;;;;3.35;3.05;;;5.50;99.90;;;;;;5020558;28;20078;-83
2021/12/27 01:23:39;;;;;;;4.90;2.65;;;5.50;99.90;;;;;;5002985;28;20022;-84
2021/12/27 01:26:05;;;;;;;2.97;2.53;;;5.50;99.90;;;;;;5037442;28;20552;-84
2021/12/27 01:28:30;;;;;;;3.28;2.95;;;5.50;99.90;;;;;;5041454;28;20027;-84
2021/12/27 01:30:57;;;;;;;3.60;2.80;;;5.60;99.90;;;;;;5040173;28;20156;-85
2021/12/27 01:33:25;;;;;;;2.90;2.60;;;5.60;99.90;;;;;;5039530;28;20029;-86
2021/12/27 01:35:51;;;;;;;2.45;2.25;;;5.50;99.90;;;;;;5021209;28;20049;-85
2021/12/27 01:38:17;;;;;;;2.80;2.20;;;5.60;99.90;;;;;;5042134;28;20033;-82
2021/12/27 01:40:45;;;;;;;2.78;2.50;;;5.50;99.90;;;;;;5031973;28;20030;-84
2021/12/27 01:43:12;;;;;;;3.38;2.83;;;5.50;99.90;;;;;;5038247;28;20040;-85
2021/12/27 01:45:42;;;;;;;3.15;2.42;;;5.50;99.90;;;;;;5039125;28;20025;-85
2021/12/27 01:48:09;;;;;;;3.00;2.70;;;5.50;99.90;;;;;;5038902;28;20025;-84
2021/12/27 01:50:40;;;;;;;2.60;2.30;;;5.50;99.90;;;;;;5039285;28;20079;-83
2021/12/27 01:53:08;;;;;;;2.72;2.15;;;5.50;99.90;;;;;;5020377;28;20028;-85
2021/12/27 01:55:34;;;;;;;2.75;2.47;;;5.50;99.90;;;;;;5038110;28;20030;-85
2021/12/27 01:58:00;;;;;;;3.08;2.55;;;5.40;99.90;;;;;;5020128;28;20030;-84
2021/12/27 02:00:26;;;;;;;4.72;2.85;;;5.40;99.90;;;;;;5039008;28;20059;-84
2021/12/27 02:02:53;;;;;;;2.58;2.38;;;5.50;99.90;;;;;;5039134;28;20025;-84
2021/12/27 02:05:19;;;;;;;2.97;2.47;;;5.50;99.90;;;;;;5021500;28;20081;-84
2021/12/27 02:07:45;;;;;;;2.83;2.40;;;5.50;99.90;;;;;;5040254;28;20465;-83
2021/12/27 02:10:12;;;;;;;2.08;1.95;;;5.50;99.90;;;;;;5053872;28;20034;-86
2021/12/27 02:12:38;;;;;;;2.25;2.05;;;5.60;99.90;;;;;;5031029;28;20022;-83
2021/12/27 02:15:09;;;;;;;3.00;2.60;;;5.60;99.90;;;;;;5004154;28;20022;-83
2021/12/27 02:17:37;;;;;;;3.97;2.78;;;5.60;99.90;;;;;;5035740;28;20017;-88
2021/12/27 02:20:09;;;;;;;3.13;2.47;;;5.60;99.90;;;;;;5037097;28;20018;-87
2021/12/27 02:22:36;;;;;;;3.10;2.58;;;5.60;99.90;;;;;;5036498;28;20022;-86
2021/12/27 02:25:07;;;;;;;3.08;2.10;;;5.60;99.90;;;;;;5056403;28;20040;-86
2021/12/27 02:27:33;;;;;;;2.35;2.15;;;5.60;99.90;;;;;;5055619;28;20068;-85
2021/12/27 02:30:00;;;;;;;3.13;2.72;;;5.60;99.90;;;;;;5045418;28;20021;-84
2021/12/27 02:32:25;;;;;;;3.30;2.70;;;5.50;99.90;;;;;;5044881;28;20045;-84
2021/12/27 02:34:51;;;;;;;2.33;2.10;;;5.50;99.90;;;;;;5045344;28;20393;-84
2021/12/27 02:37:17;;;;;;;2.85;2.35;;;5.50;99.90;;;;;;5042842;28;20060;-84
2021/12/27 02:39:45;;;;;;;2.60;2.40;;;5.50;99.90;;;;;;5017631;28;20459;-84
2021/12/27 02:42:16;;;;;;;2.55;2.22;;;5.40;99.90;;;;;;5020657;28;20033;-85
2021/12/27 02:44:42;;;;;;;2.63;2.00;;;5.40;99.90;;;;;;5024219;28;20026;-84
2021/12/27 02:47:08;;;;;;;3.22;2.58;;;5.50;99.90;;;;;;5017440;28;20033;-84
2021/12/27 02:49:33;;;;;;;2.60;2.40;;;5.50;99.90;;;;;;5002902;28;20068;-84
2021/12/27 02:51:59;;;;;;;2.65;2.42;;;5.40;99.90;;;;;;5020932;28;20026;-86
2021/12/27 02:54:26;;;;;;;2.75;2.35;;;5.50;99.90;;;;;;5021507;28;20053;-85
2021/12/27 02:56:52;;;;;;;2.08;1.92;;;5.50;99.90;;;;;;5021429;28;20041;-84
2021/12/27 02:59:17;;;;;;;2.58;2.20;;;5.50;99.90;;;;;;5000585;28;20026;-85
2021/12/27 03:01:43;;;;;;;3.10;2.20;;;5.40;99.90;;;;;;5016250;28;20029;-86
2021/12/27 03:04:09;;;;;;;2.33;2.03;;;5.40;99.90;;;;;;4998170;28;20029;-85
2021/12/27 03:06:35;;;;;;;2.78;2.45;;;5.50;99.90;;;;;;4998637;28;20046;-85
2021/12/27 03:09:01;;;;;;;2.28;2.08;;;5.50;99.90;;;;;;5029030;28;20028;-84
2021/12/27 03:11:26;;;;;;;2.30;2.10;;;5.50;99.90;;;;;;5044590;28;20030;-85
2021/12/27 03:13:52;;;;;;;2.15;1.67;;;5.50;99.90;;;;;;5037932;28;20053;-86
2021/12/27 03:16:20;;;;;;;3.47;2.63;;;5.50;99.90;;;;;;5048850;28;20025;-84
2021/12/27 03:18:52;;;;;;;2.42;2.17;;;5.50;99.90;;;;;;5024621;28;20140;-85
2021/12/27 03:21:19;;;;;;;;;;;5.50;99.90;;;;;;5035967;28;20473;-84
2021/12/27 03:23:46;;;;;;;3.38;2.22;;;5.50;99.90;;;;;;5034243;28;19913;-84
2021/12/27 03:26:11;;;;;;;2.35;1.98;;;5.50;99.90;;;;;;5033244;28;20052;-84
2021/12/27 03:28:38;;;;;;;2.60;2.10;;;5.40;99.90;;;;;;5035046;28;20033;-84
2021/12/27 03:31:08;;;;;;;2.97;1.88;;;5.40;99.90;;;;;;5034154;28;20155;-83
2021/12/27 03:33:38;;;;;;;2.53;2.08;;;5.40;99.90;;;;;;5031658;28;20040;-84
2021/12/27 03:36:09;;;;;;;2.20;2.00;;;5.40;99.90;;;;;;5025653;28;20023;-84
2021/12/27 03:38:43;;;;;;;1.95;1.70;;;5.40;99.90;;;;;;5023506;28;20050;-83
2021/12/27 03:41:16;;;;;;;1.70;1.55;;;5.50;99.90;;;;;;5020866;28;20463;-84
2021/12/27 03:43:42;;;;;;;2.83;1.83;;;5.50;99.90;;;;;;5024584;28;20033;-83
2021/12/27 03:46:09;;;;;;;2.00;1.75;;;5.50;99.90;;;;;;5029047;28;20083;-85
2021/12/27 03:48:35;;;;;;;1.80;1.70;;;5.50;99.90;;;;;;5028878;28;20428;-85
2021/12/27 03:51:02;;;;;;;1.92;1.73;;;5.50;99.90;;;;;;5017194;28;20029;-85
2021/12/27 03:53:29;;;;;;;2.30;1.80;;;5.50;99.90;;;;;;5022637;28;20026;-85
2021/12/27 03:55:55;;;;;;;1.70;1.60;;;5.50;99.90;;;;;;5025834;28;20041;-85
2021/12/27 03:58:34;;;;;;;2.75;2.03;;;5.50;99.90;;;;;;5025240;28;20045;-86
2021/12/27 04:01:13;;;;;;;2.08;1.70;;;5.50;99.90;;;;;;5025276;28;20026;-84
2021/12/27 04:03:39;;;;;;;2.28;1.58;;;5.50;99.90;;;;;;5016387;28;20018;-83
2021/12/27 04:06:08;;;;;;;1.48;1.33;;;5.50;99.90;;;;;;5033040;28;20029;-86
2021/12/27 04:08:33;;;;;;;1.63;1.42;;;5.50;99.90;;;;;;5032808;28;20033;-86
2021/12/27 04:11:17;;;;;;;1.75;1.05;;;5.50;99.90;;;;;;5017732;28;20029;-86
2021/12/27 04:13:57;;;;;;;1.33;1.23;;;5.50;99.90;;;;;;5021198;28;20030;-88
2021/12/27 04:16:23;;;;;;;1.77;1.42;;;5.50;99.90;;;;;;5036132;28;20453;-85
2021/12/27 04:18:48;;;;;;;1.88;1.40;;;5.50;99.90;;;;;;5038508;28;20072;-86
2021/12/27 04:21:14;;;;;;;1.40;1.30;;;5.50;99.90;;;;;;5035354;28;20098;-86
2021/12/27 04:23:41;;;;;;;1.58;1.23;;;5.50;99.90;;;;;;5032936;28;20466;-86
2021/12/27 04:26:07;;;;;;;1.55;1.17;;;5.50;99.90;;;;;;5027273;28;20526;-86
2021/12/27 04:28:33;;;;;;;1.70;1.00;;;5.50;99.90;;;;;;5022457;28;20081;-86
2021/12/27 04:30:58;;;;;;;1.08;1.00;;;5.50;99.90;;;;;;5014929;28;20022;-86
2021/12/27 04:33:24;;;;;;;1.25;1.15;;;5.50;99.90;;;;;;5015535;28;20153;-86
2021/12/27 04:35:50;;;;;;;1.75;1.23;;;5.60;99.90;;;;;;5020289;28;20026;-85
2021/12/27 04:38:17;;;;;;;1.58;1.10;;;5.60;99.90;;;;;;5026166;28;20079;-83
2021/12/27 04:40:45;;;;;;;0.88;0.85;;;5.60;99.90;;;;;;5053811;28;20081;-83
2021/12/27 04:43:16;;;;;;;0.93;0.88;;;5.60;99.90;;;;;;5058446;28;20089;-82
2021/12/27 04:45:43;;;;;;;1.17;1.07;;;5.60;99.90;;;;;;5053804;28;20021;-83
2021/12/27 04:48:10;;;;;;;1.40;1.30;;;5.60;99.90;;;;;;5053358;28;20260;-83
2021/12/27 04:50:36;;;;;;;1.15;0.90;;;5.60;99.90;;;;;;5053856;28;20021;-84
2021/12/27 04:53:03;;;;;;;1.00;0.90;;;5.50;99.90;;;;;;5053369;28;20029;-85
2021/12/27 04:55:30;;;;;;;2.83;1.17;;;5.40;99.90;;;;;;5039794;28;20035;-85
2021/12/27 04:57:56;;;;;;;1.08;0.90;;;5.30;99.90;;;;;;5038072;28;20033;-86
2021/12/27 05:00:22;;;;;;;1.02;0.93;;;5.30;99.90;;;;;;5037231;28;20037;-85
2021/12/27 05:02:48;;;;;;;1.00;0.77;;;5.30;99.90;;;;;;5037644;28;20025;-86
2021/12/27 05:05:14;;;;;;;1.08;1.08;;;5.20;99.90;;;;;;5036991;28;20021;-86
2021/12/27 05:07:40;;;;;;;0.80;0.80;;;5.30;99.90;;;;;;5038907;28;20087;-87
2021/12/27 05:10:06;;;;;;;1.95;0.90;;;5.30;99.90;;;;;;5037227;28;20021;-86
2021/12/27 05:12:32;;;;;;;0.90;0.88;;;5.20;99.90;;;;;;5027484;28;20029;-86
2021/12/27 05:14:58;;;;;;;1.20;1.10;;;5.30;99.90;;;;;;5019104;28;20026;-86
2021/12/27 05:17:24;;;;;;;1.40;1.30;;;5.30;99.90;;;;;;5022050;28;20053;-86
2021/12/27 05:19:49;;;;;;;0.88;0.75;;;5.30;99.90;;;;;;5036737;28;20074;-85
2021/12/27 05:22:15;;;;;;;0.90;0.90;;;5.40;99.90;;;;;;5037301;28;20116;-86
2021/12/27 05:24:41;;;;;;;0.57;0.57;;;5.40;99.90;;;;;;5036882;28;20521;-86
2021/12/27 05:27:09;;;;;;;0.60;0.60;;;5.40;99.90;;;;;;5036624;28;20474;-85
2021/12/27 05:29:36;;;;;;;0.98;0.93;;;5.40;99.90;;;;;;5038298;28;20025;-84
2021/12/27 05:32:02;;;;;;;0.57;0.57;;;5.40;99.90;;;;;;5038035;28;20065;-85
2021/12/27 05:34:28;;;;;;;1.10;0.73;;;5.30;99.90;;;;;;5039583;28;20048;-85
2021/12/27 05:36:55;;;;;;;0.80;0.70;;;5.30;99.90;;;;;;5047716;28;20540;-86
2021/12/27 05:39:22;;;;;;;0.73;0.70;;;5.20;99.90;;;;;;5035605;28;20149;-86
2021/12/27 05:41:48;;;;;;;1.50;0.65;;;5.20;99.90;;;;;;5043348;28;20014;-83
2021/12/27 05:44:14;;;;;;;0.70;0.60;;;5.20;99.90;;;;;;5037896;28;20034;-85
2021/12/27 05:46:40;;;;;;;0.80;0.70;;;5.10;99.90;;;;;;5019046;28;20366;-86
2021/12/27 05:49:06;;;;;;;0.88;0.70;;;5.10;99.90;;;;;;5031734;28;20021;-85
2021/12/27 05:51:36;;;;;;;1.10;0.95;;;5.10;99.90;;;;;;5035377;28;20026;-82
2021/12/27 05:54:04;;;;;;;0.55;0.52;;;5.20;99.90;;;;;;5028207;28;20402;-84
2021/12/27 05:56:29;;;;;;;2.20;0.77;;;5.20;99.90;;;;;;5025763;28;20030;-82
2021/12/27 05:58:55;;;;;;;1.25;0.82;;;5.20;99.90;;;;;;5026505;28;20018;-83
2021/12/27 06:01:21;;;;;;;0.90;0.70;;;5.20;99.90;;;;;;5024505;28;20167;-82
2021/12/27 06:03:47;;;;;;;1.17;0.90;;;5.20;99.90;;;;;;5022901;28;20080;-81
2021/12/27 06:06:13;;;;;;;0.70;0.70;;;5.30;99.90;;;;;;5031149;28;20040;-82
2021/12/27 06:08:38;;;;;;;1.02;1.00;;;5.20;99.90;;;;;;5051284;28;20033;-82
2021/12/27 06:11:04;;;;;;;0.75;0.75;;;5.20;99.90;;;;;;5036698;28;20504;-82
2021/12/27 06:13:30;;;;;;;0.75;0.75;;;5.10;99.90;;;;;;5039930;28;20029;-82
2021/12/27 06:15:55;;;;;;;0.77;0.73;;;5.10;99.90;;;;;;5038581;28;20029;-81
2021/12/27 06:18:21;;;;;;;1.17;0.90;;;5.00;99.90;;;;;;5039771;28;20069;-82
2021/12/27 06:20:47;;;;;;;1.60;0.98;;;4.90;99.90;;;;;;5041555;28;20076;-82
2021/12/27 06:23:13;;;;;;;1.25;0.90;;;4.80;99.90;;;;;;5023415;28;20108;-82
2021/12/27 06:25:39;;;;;;;0.80;0.80;;;4.80;99.90;;;;;;5042445;28;20025;-79
2021/12/27 06:28:05;;;;;;;1.08;0.63;;;4.70;99.90;;;;;;5020432;28;20079;-80
2021/12/27 06:30:30;;;;;;;0.95;0.70;;;4.70;99.90;;;;;;5047018;28;20043;-80
2021/12/27 06:32:56;;;;;;;1.42;0.77;;;4.70;99.90;;;;;;5020122;28;20061;-81
2021/12/27 06:35:22;;;;;;;2.63;0.85;;;4.70;99.90;;;;;;5037955;28;20021;-83
2021/12/27 06:37:48;;;;;;;1.70;0.77;;;4.70;99.90;;;;;;5024848;28;20097;-79
2021/12/27 06:40:16;;;;;;;0.95;0.75;;;4.80;99.90;;;;;;5047415;28;20029;-81
2021/12/27 06:42:42;;;;;;;0.98;0.80;;;4.80;99.90;;;;;;5038511;28;20040;-81
2021/12/27 06:45:08;;;;;;;0.65;0.65;;;4.90;99.90;;;;;;5046532;28;20028;-82
2021/12/27 06:47:34;;;;;;;0.57;0.57;;;4.90;99.90;;;;;;5039175;28;20022;-82
2021/12/27 06:50:00;;;;;;;0.90;0.70;;;5.00;99.90;;;;;;5023387;28;20022;-82
2021/12/27 06:52:26;;;;;;;1.20;0.95;;;5.00;99.90;;;;;;5004352;28;20034;-81
2021/12/27 06:54:51;;;;;;;1.95;0.95;;;5.10;99.90;;;;;;5002228;28;20030;-82
2021/12/27 06:57:18;;;;;;;2.83;1.10;;;5.00;99.90;;;;;;5002481;28;20060;-82
2021/12/27 06:59:45;;;;;;;1.20;0.90;;;4.90;99.90;;;;;;5039203;28;20021;-82
2021/12/27 07:02:11;;;;;;;2.33;1.05;;;4.80;99.90;;;;;;5023772;28;20061;-82
2021/12/27 07:04:37;;;;;;;1.25;1.00;;;4.80;99.90;;;;;;5041332;28;20112;-82
2021/12/27 07:07:03;;;;;;;1.25;0.98;;;4.70;99.90;;;;;;5042471;28;20036;-81
2021/12/27 07:09:29;;;;;;;1.20;1.10;;;4.60;99.90;;;;;;5007896;28;20041;-82
2021/12/27 07:11:55;;;;;;;2.45;1.15;;;4.60;99.90;;;;;;5038547;28;20029;-83
2021/12/27 07:14:21;;;;;;;0.90;0.90;;;4.60;99.90;;;;;;5006816;28;20038;-83
2021/12/27 07:16:47;;;;;;;1.20;1.10;;;4.60;99.90;;;;;;5003731;28;20036;-81
2021/12/27 07:19:12;;;;;;;1.02;0.93;;;4.60;99.90;;;;;;5029757;28;20040;-82
2021/12/27 07:21:38;;;;;;;1.20;1.10;;;4.60;99.90;;;;;;5022688;28;20029;-82
2021/12/27 07:24:05;;;;;;;1.33;0.93;;;4.70;99.90;;;;;;5022092;28;20030;-81
2021/12/27 07:26:30;;;;;;;1.63;1.08;;;4.80;99.90;;;;;;5039824;28;20052;-82
2021/12/27 07:28:56;;;;;;;1.65;1.13;;;4.80;99.90;;;;;;5037754;28;20021;-82
2021/12/27 07:31:22;;;;;;;1.40;1.08;;;5.00;99.90;;;;;;5036809;28;20036;-82
2021/12/27 07:33:48;;;;;;;2.13;0.95;;;5.00;99.90;;;;;;5036860;28;20416;-82
2021/12/27 07:36:15;;;;;;;1.52;0.95;;;5.10;99.90;;;;;;5037841;28;20033;-82
2021/12/27 07:38:41;;;;;;;1.20;1.10;;;5.20;99.90;;;;;;5037068;28;20033;-82
2021/12/27 07:41:08;;;;;;;2.45;1.85;;;5.20;99.90;;;;;;5027868;28;20045;-81
2021/12/27 07:43:33;;;;;;;2.20;1.90;;;5.20;99.90;;;;;;5028224;28;20028;-82
2021/12/27 07:45:59;;;;;;;2.42;2.13;;;5.20;99.90;;;;;;5040656;28;20093;-82
2021/12/27 07:48:25;;;;;;;4.65;2.70;;;5.20;99.90;;;;;;5027524;28;20021;-81
2021/12/27 07:50:51;;;;;;;2.65;2.13;;;5.30;99.90;;;;;;5026537;28;20033;-82
2021/12/27 07:53:17;;;;;;;2.25;1.90;;;5.30;99.90;;;;;;5029725;28;20366;-82
2021/12/27 07:55:43;;;;;;;5.95;2.78;;;5.30;99.90;;;;;;5022922;28;20044;-83
2021/12/27 07:58:08;;;;;;;3.80;2.20;;;5.30;99.90;;;;;;5046538;28;20030;-84
2021/12/27 08:00:34;;;;;;;3.35;2.20;;;5.20;99.90;;;;;;5048830;28;20064;-84
2021/12/27 08:03:00;;;;;;;3.92;2.60;;;5.20;99.90;;;;;;5030594;28;20213;-82
2021/12/27 08:05:27;;;;;;;4.10;3.05;;;5.20;99.90;;;;;;5042197;28;20097;-81
2021/12/27 08:07:52;;;;;;;4.43;3.00;;;5.20;99.90;;;;;;5023635;28;20030;-83
2021/12/27 08:10:18;;;;;;;5.15;2.97;;;5.20;99.90;;;;;;5025352;28;20026;-82
2021/12/27 08:12:44;;;;;;;6.45;4.15;;;5.20;99.90;;;;;;5010605;28;20484;-81
2021/12/27 08:15:11;;;;;;;5.18;3.50;;;5.20;99.90;;;;;;5004196;28;20122;-80
2021/12/27 08:17:39;;;;;;;3.65;2.88;;;5.20;99.90;;;;;;5001982;28;20574;-81
2021/12/27 08:20:06;;;;;;;4.93;3.42;;;5.20;99.90;;;;;;5021248;28;20607;-81
2021/12/27 08:22:33;;;;;;;6.18;3.38;;;5.20;99.90;;;;;;5022326;28;20048;-80
2021/12/27 08:24:58;;;;;;;4.75;3.63;;;5.10;99.90;;;;;;5021194;28;20033;-80
2021/12/27 08:27:27;;;;;;;5.07;3.80;;;5.00;99.90;;;;;;5003192;28;20026;-79
2021/12/27 08:29:52;;;;;;;5.72;3.90;;;4.80;99.90;;;;;;5030552;28;20026;-80
2021/12/27 08:32:18;;;;;;;4.90;3.63;;;4.80;99.90;;;;;;5030993;28;20044;-80
2021/12/27 08:34:44;;;;;;;4.82;3.55;;;4.80;99.90;;;;;;5027768;28;20036;-81
2021/12/27 08:37:11;;;;;;;6.32;3.95;;;4.80;99.90;;;;;;5030684;28;20059;-82
2021/12/27 08:39:38;;;;;;;6.45;3.33;;;4.80;99.90;;;;;;5032041;28;20026;-83
2021/12/27 08:42:08;;;;;;;5.15;3.88;;;4.80;99.90;;;;;;5019745;28;20025;-84
2021/12/27 08:44:37;;;;;;;7.05;3.60;;;4.80;99.90;;;;;;5034969;28;20018;-84
2021/12/27 08:47:04;;;;;;;4.85;3.35;;;4.90;99.90;;;;;;5033961;28;20155;-83
2021/12/27 08:49:29;;;;;;;5.35;3.05;;;4.90;99.90;;;;;;5051450;28;20026;-84
2021/12/27 08:51:55;;;;;;;4.05;3.08;;;5.00;99.90;;;;;;5044729;28;20038;-83
2021/12/27 08:54:21;;;;;;;3.92;3.22;;;5.10;99.90;;;;;;5013960;28;20034;-82
2021/12/27 08:56:47;;;;;;;4.00;2.65;;;5.20;99.90;;;;;;5013635;28;20026;-83
2021/12/27 08:59:13;;;;;;;4.30;2.78;;;5.40;99.90;;;;;;5012456;28;20033;-83
2021/12/27 09:01:38;;;;;;;5.70;2.97;;;5.50;99.90;;;;;;5033157;28;20148;-82
2021/12/27 09:04:04;;;;;;;3.90;2.97;;;5.60;99.90;;;;;;5033822;28;20020;-84
2021/12/27 09:06:33;;;;;;;2.75;2.50;;;5.60;99.90;;;;;;5056589;28;20037;-87
2021/12/27 09:09:00;;;;;;;2.83;2.55;;;5.80;99.90;;;;;;5038547;28;20024;-83
2021/12/27 09:11:25;;;;;;;2.97;2.25;;;5.90;99.90;;;;;;5036253;28;20356;-83
2021/12/27 09:13:51;;;;;;;3.42;2.25;;;6.10;99.90;;;;;;5037282;28;20052;-84
2021/12/27 09:16:17;;;;;;;3.08;2.20;;;6.20;99.90;;;;;;5038628;28;20056;-82
2021/12/27 09:18:43;;;;;;;2.47;2.28;;;6.30;99.90;;;;;;5036808;28;20467;-84
2021/12/27 09:21:09;;;;;;;2.28;2.03;;;6.40;99.90;;;;;;5051425;28;20029;-83
2021/12/27 09:23:35;;;;;;;3.22;2.42;;;6.40;99.90;;;;;;5050349;28;20024;-83
2021/12/27 09:26:01;;;;;;;4.13;2.33;;;6.50;99.90;;;;;;5050765;28;20041;-83
2021/12/27 09:28:27;;;;;;;2.58;2.38;;;6.50;99.90;;;;;;5048637;28;20051;-86
2021/12/27 09:30:53;;;;;;;3.28;2.35;;;6.40;99.90;;;;;;5030271;28;20429;-81
2021/12/27 09:33:19;;;;;;;3.40;1.95;;;6.40;99.90;;;;;;5025808;28;20025;-80
2021/12/27 09:35:45;;;;;;;2.85;2.00;;;6.50;99.90;;;;;;5020543;28;20088;-81
2021/12/27 09:38:11;;;;;;;3.10;2.35;;;6.70;99.90;;;;;;5020875;28;20038;-83
2021/12/27 09:40:38;;;;;;;3.33;2.35;;;6.80;99.90;;;;;;5019407;28;20024;-81
2021/12/27 09:43:03;;;;;;;2.28;2.08;;;6.70;99.90;;;;;;5029052;28;20067;-81
2021/12/27 09:45:30;;;;;;;2.63;2.15;;;6.60;99.90;;;;;;5019870;28;20021;-79
2021/12/27 09:47:56;;;;;;;2.70;2.10;;;6.70;99.90;;;;;;5021178;28;20026;-81
2021/12/27 09:50:26;;;;;;;3.05;2.05;;;6.80;99.90;;;;;;5021454;28;20038;-81
2021/12/27 09:52:52;;;;;;;3.53;2.03;;;6.90;99.90;;;;;;5021100;28;20022;-79
2021/12/27 09:55:18;;;;;;;2.85;2.05;;;7.10;99.90;;;;;;5021576;28;20102;-81
2021/12/27 09:57:44;;;;;;;2.22;2.03;;;7.20;99.90;;;;;;5019824;28;20044;-81
2021/12/27 10:00:11;;;;;;;2.03;1.40;;;7.20;99.90;;;;;;5020329;28;20026;-80
2021/12/27 10:02:38;;;;;;;2.10;1.48;;;7.30;99.90;;;;;;5020166;28;20029;-80
2021/12/27 10:05:05;;;;;;;2.53;1.98;;;7.40;99.90;;;;;;5024095;28;20022;-81
2021/12/27 10:07:31;;;;;;;3.20;2.10;;;7.40;99.90;;;;;;5029365;28;20030;-84
2021/12/27 10:09:59;;;;;;;3.42;2.08;;;7.40;99.90;;;;;;5032222;28;20065;-83
2021/12/27 10:12:27;;;;;;;2.17;1.98;;;7.40;99.90;;;;;;5032426;28;20188;-80
2021/12/27 10:15:00;;;;;;;2.83;2.20;;;7.40;99.90;;;;;;5034093;28;20463;-83
2021/12/27 10:17:30;;;;;;;3.08;2.00;;;7.40;99.90;;;;;;5031961;28;20086;-80
2021/12/27 10:20:13;;;;;;;2.63;1.80;;;7.50;99.90;;;;;;5030756;28;20030;-84
2021/12/27 10:23:05;;;;;;;2.50;1.83;;;7.70;99.90;;;;;;5011397;28;20474;-84
2021/12/27 10:25:32;;;;;;;2.75;1.70;;;7.70;99.90;;;;;;5016459;28;20093;-84
2021/12/27 10:28:00;;;;;;;4.05;2.00;;;7.80;99.90;;;;;;5021636;28;20033;-83
2021/12/27 10:30:32;;;;;;;2.22;1.85;;;7.80;99.90;;;;;;5034551;28;20029;-83
2021/12/27 10:33:12;;;;;;;;;;;7.90;99.90;;;;;;5023415;28;20028;-81
2021/12/27 10:35:41;;;;;;;2.10;1.88;;;8.10;99.90;;;;;;5039344;28;19976;-83
2021/12/27 10:38:18;;;;;;;3.45;1.90;;;8.60;99.90;;;;;;5020071;28;20031;-84
2021/12/27 10:40:53;;;;;;;2.03;1.75;;;9.00;99.90;;;;;;5005140;28;20365;-84
2021/12/27 10:43:39;;;;;;;2.80;1.63;;;9.20;99.90;;;;;;5023299;28;20069;-84
2021/12/27 10:46:08;;;;;;;2.75;2.25;;;9.20;99.90;;;;;;4989740;28;20418;-84
2021/12/27 10:48:43;;;;;;;3.50;1.95;;;9.00;99.90;;;;;;5041827;28;20029;-83
2021/12/27 10:51:09;;;;;;;2.90;2.45;;;8.80;99.90;;;;;;5023738;28;20045;-84
2021/12/27 10:53:52;;;;;;;2.60;2.08;;;8.70;99.90;;;;;;5025699;28;20052;-83
2021/12/27 10:56:20;;;;;;;2.55;1.90;;;8.70;99.90;;;;;;5023238;28;20021;-83
2021/12/27 10:58:52;;;;;;;2.50;1.92;;;8.70;99.90;;;;;;5039514;28;20030;-83
2021/12/27 11:01:19;;;;;;;2.67;2.20;;;8.70;99.90;;;;;;5039954;28;20022;-84
2021/12/27 11:03:49;;;;;;;3.28;2.22;;;8.70;99.90;;;;;;5034250;28;20025;-84
2021/12/27 11:06:20;;;;;;;2.67;1.90;;;8.80;99.90;;;;;;5039314;28;20081;-84
2021/12/27 11:08:46;;;;;;;3.40;2.25;;;8.90;99.90;;;;;;5021907;28;20081;-84
2021/12/27 11:11:13;;;;;;;2.72;1.98;;;9.00;99.90;;;;;;5039629;28;20438;-84
2021/12/27 11:13:40;;;;;;;2.65;2.17;;;9.10;99.90;;;;;;5012165;28;20121;-85
2021/12/27 11:16:06;;;;;;;3.72;2.50;;;9.10;99.90;;;;;;5021523;28;20097;-84
2021/12/27 11:18:35;;;;;;;3.90;2.67;;;9.00;99.90;;;;;;5037548;28;20439;-84
2021/12/27 11:21:23;;;;;;;4.45;3.08;;;9.00;99.90;;;;;;5025184;28;20076;-86
2021/12/27 11:23:51;;;;;;;3.35;2.67;;;9.10;99.90;;;;;;5007092;28;20030;-84
2021/12/27 11:26:26;;;;;;;3.08;2.50;;;9.00;99.90;;;;;;5022814;28;20024;-85
2021/12/27 11:28:52;;;;;;;3.70;2.50;;;9.00;99.90;;;;;;5029570;28;20025;-83
2021/12/27 11:31:25;;;;;;;2.33;1.98;;;9.00;99.90;;;;;;5022210;28;20018;-86
2021/12/27 11:34:00;;;;;;;4.30;1.83;;;8.90;99.80;;;;;;5020112;28;20058;-84
2021/12/27 11:36:28;;;;;;;3.05;2.45;;;9.00;99.30;;;;;;5024867;28;20436;-80
2021/12/27 11:38:54;;;;;;;2.13;1.75;;;8.90;98.90;;;;;;5034368;28;20085;-86
2021/12/27 11:41:39;;;;;;;2.40;1.85;;;8.90;99.60;;;;;;5037278;28;20036;-85
2021/12/27 11:44:12;;;;;;;2.20;2.00;;;9.10;99.80;;;;;;5040146;28;20021;-84
2021/12/27 11:46:50;;;;;;;4.40;2.60;;;9.10;99.00;;;;;;5042435;28;20021;-84
2021/12/27 11:49:30;;;;;;;3.15;2.13;;;9.10;98.80;;;;;;5020474;28;20045;-84
2021/12/27 11:52:15;;;;;;;3.47;2.50;;;9.00;99.30;;;;;;5041137;28;20036;-84
2021/12/27 11:54:55;;;;;;;2.55;2.30;;;9.00;99.60;;;;;;5022314;28;20071;-83
2021/12/27 11:57:43;;;;;;;2.50;2.03;;;9.00;99.20;;;;;;5045053;28;20113;-83
2021/12/27 12:00:32;;;;;;;2.67;2.10;;;9.00;99.20;;;;;;5014435;28;20116;-83
2021/12/27 12:03:01;;;;;;;2.80;2.55;;;9.00;99.20;;;;;;4993367;28;20406;-82
2021/12/27 12:05:47;;;;;;;2.88;2.35;;;9.10;99.00;;;;;;5037988;28;20014;-83
2021/12/27 12:08:20;;;;;;;1.70;1.60;;;9.20;97.80;;;;;;5016240;28;20037;-83
2021/12/27 12:11:07;;;;;;;2.83;1.92;;;9.20;98.10;;;;;;5034265;28;20081;-83
2021/12/27 12:13:44;;;;;;;1.90;1.77;;;9.20;98.20;;;;;;5028010;28;20081;-83
2021/12/27 12:16:18;;;;;;;1.88;1.65;;;9.20;98.00;;;;;;5042988;28;20030;-83
2021/12/27 12:19:04;;;;;;;2.65;2.00;;;9.30;97.80;;;;;;5041606;28;20048;-83
2021/12/27 12:21:59;;;;;;;1.58;1.45;;;9.40;97.80;;;;;;5041118;28;20057;-83
2021/12/27 12:24:24;;;;;;;2.30;1.73;;;9.40;97.70;;;;;;5014482;28;20100;-83
2021/12/27 12:26:52;;;;;;;2.63;2.10;;;9.40;97.50;;;;;;5041446;28;20018;-83
2021/12/27 12:29:19;;;;;;;2.65;2.10;;;9.40;97.60;;;;;;5024774;28;20099;-86
2021/12/27 12:31:45;;;;;;;2.15;1.90;;;9.40;97.50;;;;;;5015624;28;20029;-84
2021/12/27 12:34:19;;;;;;;3.88;2.33;;;9.30;97.40;;;;;;5020732;28;20082;-84
2021/12/27 12:36:57;;;;;;;1.90;1.67;;;9.30;97.50;;;;;;5029972;28;20025;-83
2021/12/27 12:39:25;;;;;;;2.65;2.00;;;9.30;97.50;;;;;;5009147;28;20049;-83
2021/12/27 12:42:04;;;;;;;1.90;1.70;;;9.40;97.30;;;;;;5045644;28;20076;-83
2021/12/27 12:44:30;;;;;;;2.45;2.20;;;9.40;97.20;;;;;;5051450;28;20034;-83
2021/12/27 12:46:59;;;;;;;1.98;1.70;;;9.40;96.80;;;;;;5045418;28;20049;-82
2021/12/27 12:49:26;;;;;;;2.17;1.75;;;9.40;96.60;;;;;;5049851;28;20018;-82
2021/12/27 12:51:54;;;;;;;2.28;1.38;;;9.60;96.70;;;;;;5043678;28;20026;-82
2021/12/27 12:54:23;;;;;;;2.15;1.70;;;9.70;96.40;;;;;;5024803;28;20041;-82
2021/12/27 12:56:59;;;;;;;1.60;1.50;;;9.90;95.90;;;;;;5023982;28;20025;-82
2021/12/27 12:59:31;;;;;;;2.40;1.65;;;10.00;95.50;;;;;;5045732;28;20533;-83
2021/12/27 13:02:02;;;;;;;1.75;1.30;;;10.10;95.30;;;;;;5023826;28;20050;-83
2021/12/27 13:04:53;;;;;;;1.40;1.30;;;10.10;94.30;;;;;;5018713;28;20344;-83